Milton, Vermont
Current Conditions -  °F | °C
As of 6:28 PM on Friday 19 Dec 2014 (Local Time) from KBTV Reporting Station
Scattered Clouds Scattered Clouds  
Wind Chill: 15°   Ceiling: Unl
Heat Index: 23°   Visibility: 10mi
Dew Point: 14°   Wind: 7mph
Humidity: 68%   Direction: 40°NE
Pressure: 30.18"   Gusts: NA
Location:  44.64°N, 73.11°W
Report Text: KBTV 192328Z 04006KT 10SM SCT019 M05/M10 A3018 RMK AO2 T10501100
Loading
Personal Weather Stations






























Interactive Weather Map New forecast layout! Learn more

10-Day Weather Forecast

Advertisements
Track Severe Weather on mobile